Time;durP1;ratioP1;P1;durP2;ratioP2;P2;SDS_P1;SDS_P2;PMS_P1;PMS_P2;Temp;Humidity;BMP_temperature;BMP_pressure;BME280_temperature;BME280_humidity;BME280_pressure;Samples;Min_cycle;Max_cycle;Signal;HPM_P1;HPM_P2
2023/09/12 00:01:26;;;;;;;7.67;4.80;;;24.20;99.90;;;;;;4934758;29;20197;-75
2023/09/12 00:03:52;;;;;;;5.10;4.60;;;24.10;99.90;;;;;;4924230;29;20603;-74
2023/09/12 00:06:18;;;;;;;5.07;4.37;;;24.10;99.90;;;;;;4934860;29;20188;-75
2023/09/12 00:08:43;;;;;;;4.87;3.90;;;24.00;99.90;;;;;;4934796;29;20185;-74
2023/09/12 00:11:11;;;;;;;4.37;3.77;;;24.00;99.90;;;;;;4934497;29;20608;-74
2023/09/12 00:13:41;;;;;;;7.00;4.10;;;23.90;99.90;;;;;;4940778;29;20196;-75
2023/09/12 00:16:10;;;;;;;4.70;3.50;;;23.80;99.90;;;;;;4934722;29;20984;-75
2023/09/12 00:18:37;;;;;;;5.07;4.23;;;23.80;99.90;;;;;;4934322;29;20637;-75
2023/09/12 00:21:03;;;;;;;4.70;4.20;;;23.70;99.90;;;;;;4939005;28;20690;-75
2023/09/12 00:23:29;;;;;;;4.03;3.60;;;23.60;99.90;;;;;;4952124;29;20951;-75
2023/09/12 00:25:56;;;;;;;6.40;3.77;;;23.60;99.90;;;;;;4939605;29;20679;-75
2023/09/12 00:28:22;;;;;;;5.23;3.70;;;23.50;99.90;;;;;;4952928;29;20584;-75
2023/09/12 00:30:47;;;;;;;5.70;4.20;;;23.50;99.90;;;;;;4940144;28;20593;-75
2023/09/12 00:33:13;;;;;;;6.37;3.80;;;23.40;99.90;;;;;;4934410;28;20201;-74
2023/09/12 00:35:39;;;;;;;5.20;4.70;;;23.30;99.90;;;;;;4917480;29;20203;-74
2023/09/12 00:38:06;;;;;;;4.37;3.93;;;23.30;99.90;;;;;;4939324;29;20180;-74
2023/09/12 00:40:32;;;;;;;5.10;3.87;;;23.20;99.90;;;;;;4934108;28;20220;-75
2023/09/12 00:42:58;;;;;;;7.17;5.00;;;23.20;99.90;;;;;;4933711;29;20664;-74
2023/09/12 00:45:24;;;;;;;7.00;4.27;;;23.10;99.90;;;;;;4934067;29;20585;-75
2023/09/12 00:47:52;;;;;;;4.53;4.00;;;23.10;99.90;;;;;;4929103;29;20671;-73
2023/09/12 00:50:20;;;;;;;6.90;4.97;;;23.00;99.90;;;;;;4951730;29;21194;-74
2023/09/12 00:52:47;;;;;;;5.50;4.10;;;23.00;99.90;;;;;;4931780;29;20616;-75
2023/09/12 00:55:14;;;;;;;5.50;4.43;;;22.90;99.90;;;;;;4931849;29;20640;-74
2023/09/12 00:57:40;;;;;;;7.20;4.40;;;22.90;99.90;;;;;;4949145;28;20597;-75
2023/09/12 01:00:12;;;;;;;8.07;6.33;;;22.90;99.90;;;;;;4915641;29;20635;-74
2023/09/12 01:02:46;;;;;;;7.43;5.10;;;22.80;99.90;;;;;;4932328;29;20620;-75
2023/09/12 01:05:14;;;;;;;6.13;4.53;;;22.80;99.90;;;;;;4931529;28;20605;-74
2023/09/12 01:07:42;;;;;;;9.43;6.17;;;22.80;99.90;;;;;;4902282;29;20596;-74
2023/09/12 01:10:08;;;;;;;6.20;4.27;;;22.70;99.90;;;;;;4932633;29;21159;-75
2023/09/12 01:12:35;;;;;;;7.50;4.90;;;22.70;99.90;;;;;;4949764;29;20624;-75
2023/09/12 01:15:01;;;;;;;4.97;4.47;;;22.70;99.90;;;;;;4922458;29;20660;-75
2023/09/12 01:17:27;;;;;;;6.10;4.60;;;22.70;99.90;;;;;;4932737;29;20616;-75
2023/09/12 01:19:53;;;;;;;9.00;5.70;;;22.60;99.90;;;;;;4932278;29;20192;-75
2023/09/12 01:22:52;;;;;;;6.90;5.40;;;22.60;99.90;;;;;;4932886;29;20613;-74
2023/09/12 01:25:40;;;;;;;7.10;5.17;;;22.60;99.90;;;;;;4949115;29;20679;-75
2023/09/12 01:28:09;;;;;;;6.70;5.77;;;22.60;99.90;;;;;;4921302;29;20596;-75
2023/09/12 01:30:35;;;;;;;5.77;5.17;;;22.60;99.90;;;;;;4933222;29;20595;-74
2023/09/12 01:33:02;;;;;;;10.87;5.77;;;22.60;99.90;;;;;;4932361;29;20617;-74
2023/09/12 01:35:27;;;;;;;7.47;6.53;;;22.50;99.90;;;;;;4948661;29;20644;-75
2023/09/12 01:37:54;;;;;;;7.50;6.80;;;22.50;99.90;;;;;;4918625;29;20588;-75
2023/09/12 01:40:36;;;;;;;6.60;6.00;;;22.50;99.90;;;;;;4935134;29;21006;-75
2023/09/12 01:43:05;;;;;;;6.90;5.80;;;22.50;99.90;;;;;;4916184;29;20744;-74
2023/09/12 01:45:31;;;;;;;8.03;6.00;;;22.50;99.90;;;;;;4924289;29;20589;-74
2023/09/12 01:47:58;;;;;;;6.10;5.53;;;22.50;99.90;;;;;;4932205;29;20629;-75
2023/09/12 01:50:27;;;;;;;8.83;6.60;;;22.60;99.90;;;;;;4915808;29;20591;-74
2023/09/12 01:52:53;;;;;;;7.80;6.10;;;22.60;99.90;;;;;;4932327;29;20628;-75
2023/09/12 01:55:20;;;;;;;6.27;5.67;;;22.60;99.90;;;;;;4944219;29;20633;-75
2023/09/12 01:57:47;;;;;;;7.73;5.93;;;22.60;99.90;;;;;;4931971;29;20612;-74
2023/09/12 02:00:13;;;;;;;9.10;7.20;;;22.60;99.90;;;;;;4915783;29;20596;-75
2023/09/12 02:02:39;;;;;;;6.97;6.27;;;22.60;99.90;;;;;;4904976;29;20614;-79
2023/09/12 02:05:18;;;;;;;8.83;6.73;;;22.60;99.90;;;;;;4916590;29;21187;-78
2023/09/12 02:07:44;;;;;;;8.80;8.00;;;22.60;99.90;;;;;;4952882;29;20216;-79
2023/09/12 02:10:10;;;;;;;7.73;6.43;;;22.60;99.90;;;;;;4924623;29;20669;-78
2023/09/12 02:12:36;;;;;;;6.87;6.03;;;22.50;99.90;;;;;;4938137;29;20617;-78
2023/09/12 02:15:03;;;;;;;8.20;7.33;;;22.50;99.90;;;;;;4926325;29;20637;-78
2023/09/12 02:17:28;;;;;;;11.20;7.87;;;22.50;99.90;;;;;;4933209;29;20651;-78
2023/09/12 02:19:54;;;;;;;9.57;8.60;;;22.50;99.90;;;;;;4914725;29;20586;-78
2023/09/12 02:22:20;;;;;;;7.97;7.17;;;22.40;99.90;;;;;;4904802;29;20672;-78
2023/09/12 02:24:45;;;;;;;8.47;7.67;;;22.40;99.90;;;;;;4939901;29;20742;-78
2023/09/12 02:27:11;;;;;;;11.63;9.10;;;22.40;99.90;;;;;;4908759;29;20189;-78
2023/09/12 02:29:39;;;;;;;8.43;7.47;;;22.40;99.90;;;;;;4915888;29;20523;-78
2023/09/12 02:32:05;;;;;;;9.80;8.20;;;22.30;99.90;;;;;;4921490;29;20202;-79
2023/09/12 02:34:30;;;;;;;9.17;7.80;;;22.30;99.90;;;;;;4918646;29;20601;-78
2023/09/12 02:36:56;;;;;;;9.70;8.70;;;22.30;99.90;;;;;;4912239;29;20612;-79
2023/09/12 02:39:22;;;;;;;11.80;8.03;;;22.30;99.90;;;;;;4935035;29;20252;-78
2023/09/12 02:41:47;;;;;;;8.73;7.83;;;22.30;99.90;;;;;;4939707;29;20299;-78
2023/09/12 02:44:13;;;;;;;9.10;8.17;;;22.20;99.90;;;;;;4949707;29;20676;-78
2023/09/12 02:46:39;;;;;;;10.07;9.07;;;22.20;99.90;;;;;;4946684;29;20189;-78
2023/09/12 02:49:05;;;;;;;10.27;9.23;;;22.20;99.90;;;;;;4953872;28;20177;-79
2023/09/12 02:51:31;;;;;;;12.47;9.30;;;22.20;99.90;;;;;;4930838;29;20212;-79
2023/09/12 02:53:57;;;;;;;9.87;8.87;;;22.20;99.90;;;;;;4932019;29;20226;-77
2023/09/12 02:56:22;;;;;;;11.60;8.53;;;22.20;99.90;;;;;;4928435;29;20648;-77
2023/09/12 02:58:49;;;;;;;9.63;8.63;;;22.20;99.90;;;;;;4948102;29;20247;-77
2023/09/12 03:01:19;;;;;;;8.70;7.80;;;22.20;99.90;;;;;;4958111;28;20183;-77
2023/09/12 03:03:49;;;;;;;10.67;7.73;;;22.20;99.90;;;;;;4924298;29;20645;-78
2023/09/12 03:06:15;;;;;;;8.33;6.73;;;22.20;99.90;;;;;;4936957;29;20587;-78
2023/09/12 03:08:43;;;;;;;9.57;7.47;;;22.20;99.90;;;;;;4947219;28;20589;-78
2023/09/12 03:11:09;;;;;;;7.60;6.30;;;22.20;99.90;;;;;;4951311;29;20591;-78
2023/09/12 03:13:36;;;;;;;10.23;7.23;;;22.20;99.90;;;;;;4948091;29;20591;-78
2023/09/12 03:16:02;;;;;;;9.20;6.47;;;22.30;99.90;;;;;;4931491;29;20643;-77
2023/09/12 03:18:27;;;;;;;9.00;6.17;;;22.20;99.90;;;;;;4955547;29;21155;-78
2023/09/12 03:20:54;;;;;;;9.57;6.90;;;22.30;99.90;;;;;;4927299;29;20181;-78
2023/09/12 03:23:20;;;;;;;7.40;6.70;;;22.30;99.90;;;;;;4941806;29;20667;-78
2023/09/12 03:25:46;;;;;;;9.37;8.47;;;22.30;99.90;;;;;;4943988;29;20321;-77
2023/09/12 03:28:13;;;;;;;7.97;7.27;;;22.30;99.90;;;;;;4941486;29;20749;-77
2023/09/12 03:30:39;;;;;;;8.13;6.93;;;22.40;99.90;;;;;;4948580;29;20687;-78
2023/09/12 03:33:06;;;;;;;9.37;7.27;;;22.40;99.90;;;;;;4941656;29;20219;-78
2023/09/12 03:35:33;;;;;;;6.37;5.73;;;22.40;99.90;;;;;;4955649;29;20643;-78
2023/09/12 03:37:59;;;;;;;7.13;6.40;;;22.40;99.90;;;;;;4950355;29;21078;-78
2023/09/12 03:40:24;;;;;;;8.60;6.37;;;22.40;99.90;;;;;;4927166;29;20679;-78
2023/09/12 03:42:50;;;;;;;10.70;6.17;;;22.40;99.90;;;;;;4947418;29;20699;-78
2023/09/12 03:45:16;;;;;;;6.87;6.20;;;22.40;99.90;;;;;;4935738;29;20274;-77
2023/09/12 03:47:46;;;;;;;6.80;5.57;;;22.40;99.90;;;;;;4939556;29;20251;-78
2023/09/12 03:50:13;;;;;;;6.33;5.73;;;22.40;99.90;;;;;;4944138;29;20192;-77
2023/09/12 03:52:39;;;;;;;6.23;5.63;;;22.40;99.90;;;;;;4946541;28;20712;-78
2023/09/12 03:55:05;;;;;;;6.63;5.63;;;22.40;99.90;;;;;;4945739;29;21312;-78
2023/09/12 03:57:31;;;;;;;7.30;6.53;;;22.40;99.90;;;;;;4961678;28;20623;-78
2023/09/12 03:59:57;;;;;;;8.50;6.63;;;22.50;99.90;;;;;;4953348;29;20655;-78
2023/09/12 04:02:23;;;;;;;8.87;6.00;;;22.50;99.90;;;;;;4952704;28;20280;-79
2023/09/12 04:04:49;;;;;;;6.93;6.30;;;22.50;99.90;;;;;;4952965;29;20597;-79
2023/09/12 04:07:15;;;;;;;6.43;5.83;;;22.50;99.90;;;;;;4929198;29;20584;-79
2023/09/12 04:09:40;;;;;;;10.07;5.70;;;22.60;99.90;;;;;;4953369;29;20177;-79
2023/09/12 04:12:06;;;;;;;7.93;5.90;;;22.60;99.90;;;;;;4942994;29;20614;-78
2023/09/12 04:14:33;;;;;;;6.70;6.00;;;22.60;99.90;;;;;;4933787;29;20180;-78
2023/09/12 04:16:58;;;;;;;7.70;5.53;;;22.60;99.90;;;;;;4945688;29;20604;-79
2023/09/12 04:19:25;;;;;;;6.17;5.57;;;22.60;99.90;;;;;;4935056;28;20622;-79
2023/09/12 04:21:51;;;;;;;6.33;5.63;;;22.70;99.90;;;;;;4939538;28;21275;-80
2023/09/12 04:24:17;;;;;;;5.00;4.50;;;22.70;99.90;;;;;;4927079;29;20177;-79
2023/09/12 04:26:44;;;;;;;5.40;4.90;;;22.70;99.90;;;;;;4928765;29;20176;-79
2023/09/12 04:29:10;;;;;;;8.00;5.47;;;22.70;99.90;;;;;;4929836;29;20587;-79
2023/09/12 04:31:36;;;;;;;5.80;5.30;;;22.80;99.90;;;;;;4948444;29;20627;-80
2023/09/12 04:34:02;;;;;;;5.40;4.90;;;22.80;99.90;;;;;;4937894;29;21009;-79
2023/09/12 04:36:28;;;;;;;9.97;5.47;;;22.90;99.90;;;;;;4952400;29;20632;-80
2023/09/12 04:38:54;;;;;;;7.20;5.10;;;22.80;99.90;;;;;;4935869;29;20263;-80
2023/09/12 04:41:20;;;;;;;6.60;5.87;;;22.90;99.90;;;;;;4953659;28;20633;-80
2023/09/12 04:43:46;;;;;;;4.70;4.30;;;22.90;99.90;;;;;;4925932;29;20180;-79
2023/09/12 04:46:12;;;;;;;6.27;4.83;;;22.90;99.90;;;;;;4915287;29;20589;-80
2023/09/12 04:48:52;;;;;;;5.57;5.07;;;22.90;99.90;;;;;;4955709;29;20594;-78
2023/09/12 04:51:18;;;;;;;4.63;4.23;;;22.90;99.90;;;;;;4924846;28;20620;-80
2023/09/12 04:53:44;;;;;;;5.43;4.87;;;22.90;99.90;;;;;;4956416;29;20587;-79
2023/09/12 04:56:10;;;;;;;6.67;5.30;;;22.90;99.90;;;;;;4956425;29;20260;-80
2023/09/12 04:58:36;;;;;;;5.70;4.73;;;22.90;99.90;;;;;;4947643;28;20969;-80
2023/09/12 05:01:02;;;;;;;6.17;4.30;;;22.90;99.90;;;;;;4899373;28;20683;-79
2023/09/12 05:03:29;;;;;;;6.00;4.80;;;22.90;99.90;;;;;;4954957;29;20616;-79
2023/09/12 05:05:54;;;;;;;5.53;4.67;;;22.90;99.90;;;;;;4936927;29;20603;-80
2023/09/12 05:08:20;;;;;;;5.17;4.47;;;22.80;99.90;;;;;;4949026;29;20188;-80
2023/09/12 05:10:46;;;;;;;5.37;4.23;;;22.80;99.90;;;;;;4937775;29;20184;-80
2023/09/12 05:13:12;;;;;;;6.23;3.80;;;22.80;99.90;;;;;;4947546;28;20200;-80
2023/09/12 05:15:39;;;;;;;5.37;4.03;;;22.80;99.90;;;;;;4933109;29;20215;-80
2023/09/12 05:18:06;;;;;;;4.87;4.07;;;22.80;99.90;;;;;;4952515;29;20188;-80
2023/09/12 05:20:33;;;;;;;4.67;3.63;;;22.80;99.90;;;;;;4951587;29;21193;-80
2023/09/12 05:22:58;;;;;;;4.77;4.37;;;22.90;99.90;;;;;;4924325;29;20627;-79
2023/09/12 05:25:25;;;;;;;5.60;4.97;;;22.90;99.90;;;;;;4944109;28;21303;-80
2023/09/12 05:27:51;;;;;;;5.90;5.30;;;22.90;99.90;;;;;;4933952;29;20185;-80
2023/09/12 05:30:16;;;;;;;5.77;4.73;;;22.90;99.90;;;;;;4916175;29;20600;-80
2023/09/12 05:32:42;;;;;;;4.93;4.43;;;23.00;99.90;;;;;;4927215;29;20625;-80
2023/09/12 05:35:09;;;;;;;6.23;5.33;;;23.00;99.90;;;;;;4933157;29;20644;-80
2023/09/12 05:37:34;;;;;;;4.73;3.80;;;23.10;99.90;;;;;;4935763;29;20569;-80
2023/09/12 05:40:20;;;;;;;4.73;4.20;;;23.10;99.90;;;;;;4933442;29;20185;-79
2023/09/12 05:42:46;;;;;;;5.83;4.20;;;23.10;99.90;;;;;;4933055;29;20643;-80
2023/09/12 05:45:13;;;;;;;5.70;4.60;;;23.20;99.90;;;;;;4932371;29;21140;-78
2023/09/12 05:47:38;;;;;;;5.37;4.40;;;23.30;99.90;;;;;;4917031;29;20592;-79
2023/09/12 05:50:06;;;;;;;5.60;4.43;;;23.40;99.90;;;;;;4916404;29;20188;-79
2023/09/12 05:52:33;;;;;;;5.40;4.60;;;23.40;99.90;;;;;;4914700;29;20631;-79
2023/09/12 05:54:59;;;;;;;5.10;4.60;;;23.50;99.90;;;;;;4931906;29;20625;-79
2023/09/12 05:57:25;;;;;;;6.83;5.17;;;23.50;99.90;;;;;;4923026;29;20658;-79
2023/09/12 05:59:51;;;;;;;6.60;4.50;;;23.60;99.90;;;;;;4952138;29;20663;-78
2023/09/12 06:02:17;;;;;;;4.90;4.40;;;23.60;99.90;;;;;;4933715;29;20231;-79
2023/09/12 06:04:43;;;;;;;4.03;3.63;;;23.70;99.90;;;;;;4943983;28;20271;-79
2023/09/12 06:07:09;;;;;;;4.80;4.30;;;23.70;99.90;;;;;;4922891;29;20640;-79
2023/09/12 06:09:35;;;;;;;5.03;3.97;;;23.80;99.90;;;;;;4931821;29;20956;-79
2023/09/12 06:12:01;;;;;;;5.50;4.93;;;23.90;99.90;;;;;;4926462;29;20615;-81
2023/09/12 06:14:27;;;;;;;5.93;4.80;;;24.00;99.90;;;;;;4944639;29;20268;-82
2023/09/12 06:16:53;;;;;;;5.10;3.77;;;24.10;99.90;;;;;;4916011;29;21057;-81
2023/09/12 06:19:19;;;;;;;5.53;4.20;;;24.20;99.90;;;;;;4924110;29;20173;-81
2023/09/12 06:21:45;;;;;;;6.20;5.60;;;24.40;99.90;;;;;;4940616;29;20623;-80
2023/09/12 06:24:23;;;;;;;6.00;5.40;;;24.60;99.90;;;;;;4951186;29;21020;-78
2023/09/12 06:26:50;;;;;;;7.87;6.17;;;24.70;99.90;;;;;;4933340;29;20648;-80
2023/09/12 06:29:15;;;;;;;7.40;6.40;;;24.90;99.90;;;;;;4951712;29;20623;-78
2023/09/12 06:31:41;;;;;;;10.13;8.17;;;25.00;99.90;;;;;;4926264;29;20654;-77
2023/09/12 06:34:08;;;;;;;8.83;7.50;;;25.20;99.90;;;;;;4939782;29;20605;-78
2023/09/12 06:36:34;;;;;;;9.70;8.57;;;25.30;99.90;;;;;;4930995;29;20791;-78
2023/09/12 06:39:00;;;;;;;10.50;9.50;;;25.40;99.90;;;;;;4939689;28;20680;-78
2023/09/12 06:41:27;;;;;;;10.57;9.47;;;25.60;99.90;;;;;;4937618;28;20208;-78
2023/09/12 06:43:55;;;;;;;11.30;10.00;;;25.70;99.90;;;;;;4935090;29;20631;-78
2023/09/12 06:46:21;;;;;;;16.20;9.53;;;25.80;99.90;;;;;;4937969;29;20973;-79
2023/09/12 06:48:48;;;;;;;10.17;9.13;;;26.00;99.90;;;;;;4940645;29;20584;-78
2023/09/12 06:51:15;;;;;;;11.00;9.80;;;26.10;99.90;;;;;;4950531;28;20596;-78
2023/09/12 06:53:40;;;;;;;10.50;9.43;;;26.20;99.90;;;;;;4947865;28;20592;-80
2023/09/12 06:56:07;;;;;;;11.57;9.83;;;26.30;99.90;;;;;;4951962;28;20688;-80
2023/09/12 06:58:36;;;;;;;9.83;8.63;;;26.40;99.90;;;;;;4922588;29;20624;-80
2023/09/12 07:01:05;;;;;;;9.37;8.40;;;26.70;99.90;;;;;;4918992;29;20589;-80
2023/09/12 07:03:32;;;;;;;8.50;7.70;;;26.90;99.90;;;;;;4936370;29;21192;-80
2023/09/12 07:06:32;;;;;;;8.23;7.43;;;27.10;99.90;;;;;;4936724;29;20977;-81
2023/09/12 07:08:58;;;;;;;8.10;7.27;;;27.30;99.90;;;;;;4912357;29;20702;-79
2023/09/12 07:11:24;;;;;;;8.57;7.67;;;27.50;99.90;;;;;;4938510;29;20710;-79
2023/09/12 07:13:49;;;;;;;7.23;6.53;;;27.60;99.90;;;;;;4956479;29;20595;-79
2023/09/12 07:16:15;;;;;;;8.30;6.93;;;27.60;99.90;;;;;;4925412;29;20257;-79
2023/09/12 07:18:41;;;;;;;6.63;6.03;;;27.60;99.90;;;;;;4926735;29;20177;-81
2023/09/12 07:21:07;;;;;;;10.27;7.20;;;27.60;99.90;;;;;;4929942;28;20679;-81
2023/09/12 07:23:33;;;;;;;6.80;6.10;;;27.60;99.90;;;;;;4940477;29;20173;-81
2023/09/12 07:25:59;;;;;;;6.63;5.43;;;27.60;99.90;;;;;;4942426;29;20610;-81
2023/09/12 07:28:30;;;;;;;9.60;5.77;;;27.70;99.90;;;;;;4940288;29;20271;-80
2023/09/12 07:30:56;;;;;;;8.40;6.20;;;27.90;99.90;;;;;;4953291;28;20607;-80
2023/09/12 07:33:22;;;;;;;6.00;5.37;;;28.40;99.90;;;;;;4940322;29;20636;-78
2023/09/12 07:35:48;;;;;;;6.37;5.50;;;29.00;99.90;;;;;;4934254;29;21287;-78
2023/09/12 07:38:17;;;;;;;7.33;5.27;;;29.50;99.90;;;;;;4938671;29;20683;-78
2023/09/12 07:40:43;;;;;;;6.03;5.07;;;30.00;99.90;;;;;;4941405;29;20584;-78
2023/09/12 07:43:10;;;;;;;4.93;4.40;;;30.50;99.90;;;;;;4954394;28;20650;-78
2023/09/12 07:45:39;;;;;;;4.90;4.10;;;31.10;99.90;;;;;;4945410;28;20198;-78
2023/09/12 07:48:12;;;;;;;7.40;5.43;;;31.60;99.90;;;;;;4940548;29;20593;-78
2023/09/12 07:50:38;;;;;;;4.70;4.20;;;32.10;99.90;;;;;;4954193;28;20767;-78
2023/09/12 07:53:05;;;;;;;4.80;3.83;;;32.60;99.90;;;;;;4933731;29;20701;-76
2023/09/12 07:55:35;;;;;;;4.53;3.60;;;33.10;99.90;;;;;;4933923;29;20670;-76
2023/09/12 07:58:02;;;;;;;5.00;4.30;;;33.50;99.90;;;;;;4925813;29;20596;-77
2023/09/12 08:00:28;;;;;;;6.57;4.10;;;34.10;99.90;;;;;;4934510;29;20972;-76
2023/09/12 08:02:53;;;;;;;4.10;3.47;;;34.60;99.90;;;;;;4952052;28;20699;-77
2023/09/12 08:05:19;;;;;;;4.40;3.47;;;35.20;99.90;;;;;;4929036;29;20469;-77
2023/09/12 08:07:45;;;;;;;3.83;3.00;;;35.60;99.90;;;;;;4937391;29;20274;-76
2023/09/12 08:10:10;;;;;;;7.90;3.37;;;36.10;99.90;;;;;;4934438;29;20181;-76
2023/09/12 08:12:41;;;;;;;3.40;2.73;;;36.50;99.90;;;;;;4933380;29;20279;-75
2023/09/12 08:15:08;;;;;;;4.50;2.63;;;37.00;98.10;;;;;;4934487;29;20208;-76
2023/09/12 08:17:33;;;;;;;2.90;2.53;;;37.30;96.20;;;;;;4928891;29;20585;-76
2023/09/12 08:19:59;;;;;;;3.53;2.77;;;37.70;95.10;;;;;;4917089;29;20596;-77
2023/09/12 08:22:25;;;;;;;3.90;3.50;;;38.00;90.80;;;;;;4932989;29;20193;-75
2023/09/12 08:24:50;;;;;;;3.03;2.10;;;38.20;88.70;;;;;;4943605;29;20202;-76
2023/09/12 08:27:16;;;;;;;3.80;2.40;;;38.50;89.20;;;;;;4946991;29;20177;-76
2023/09/12 08:29:44;;;;;;;3.23;2.97;;;38.70;83.50;;;;;;4949060;29;20220;-75
2023/09/12 08:32:10;;;;;;;3.73;3.10;;;38.90;81.70;;;;;;4952072;28;20235;-75
2023/09/12 08:34:35;;;;;;;4.07;2.77;;;38.90;75.80;;;;;;4936456;29;20635;-75
2023/09/12 08:37:01;;;;;;;3.33;2.50;;;39.00;76.70;;;;;;4936128;29;20287;-76
2023/09/12 08:39:39;;;;;;;2.60;2.10;;;39.10;76.40;;;;;;4952996;29;20216;-75
2023/09/12 08:42:06;;;;;;;2.30;2.03;;;39.30;75.20;;;;;;4940999;28;21681;-76
2023/09/12 08:44:31;;;;;;;4.03;3.00;;;39.50;73.90;;;;;;4933093;29;20589;-76
2023/09/12 08:46:59;;;;;;;5.13;3.33;;;39.70;72.10;;;;;;4935843;29;20592;-76
2023/09/12 08:49:26;;;;;;;3.23;2.50;;;39.90;70.10;;;;;;4951972;29;20204;-76
2023/09/12 08:51:51;;;;;;;4.33;2.60;;;40.00;68.60;;;;;;4937061;29;20621;-76
2023/09/12 08:54:17;;;;;;;3.27;2.73;;;40.10;67.60;;;;;;4923796;29;20644;-77
2023/09/12 08:56:44;;;;;;;3.73;2.83;;;40.30;66.80;;;;;;4932625;29;20204;-78
2023/09/12 08:59:11;;;;;;;3.33;2.47;;;40.40;65.70;;;;;;4951946;28;20180;-79
2023/09/12 09:01:38;;;;;;;3.10;2.80;;;40.50;64.60;;;;;;4940234;29;20616;-78
2023/09/12 09:04:04;;;;;;;4.00;2.90;;;40.50;61.60;;;;;;4948740;29;20584;-79
2023/09/12 09:06:40;;;;;;;3.70;3.00;;;40.30;61.60;;;;;;4934295;29;21190;-79
2023/09/12 09:09:07;;;;;;;3.53;2.40;;;40.20;61.00;;;;;;4934053;29;21301;-79
2023/09/12 09:11:34;;;;;;;3.77;2.60;;;40.30;60.60;;;;;;4948056;29;21295;-79
2023/09/12 09:14:04;;;;;;;6.93;2.60;;;40.50;60.40;;;;;;4943811;29;21163;-76
2023/09/12 09:16:30;;;;;;;3.67;3.07;;;40.60;59.40;;;;;;4946290;29;20636;-77
2023/09/12 09:19:01;;;;;;;5.77;2.80;;;40.90;58.90;;;;;;4939879;28;20603;-77
2023/09/12 09:21:30;;;;;;;4.03;2.83;;;41.00;58.80;;;;;;4933090;29;20627;-76
2023/09/12 09:23:58;;;;;;;5.47;3.07;;;40.80;57.30;;;;;;4942772;29;20588;-77
2023/09/12 09:26:24;;;;;;;3.83;3.00;;;40.40;56.50;;;;;;4947642;29;20621;-77
2023/09/12 09:29:03;;;;;;;5.33;3.40;;;39.90;56.00;;;;;;4933476;29;20591;-77
2023/09/12 09:31:29;;;;;;;3.27;2.57;;;39.30;55.40;;;;;;4929684;29;20634;-78
2023/09/12 09:33:55;;;;;;;4.87;2.70;;;38.50;55.30;;;;;;4926825;29;20587;-79
2023/09/12 09:36:21;;;;;;;4.10;2.73;;;37.80;55.60;;;;;;4941863;29;20193;-79
2023/09/12 09:38:47;;;;;;;3.70;2.43;;;37.20;56.10;;;;;;4942406;29;21576;-79
2023/09/12 09:41:12;;;;;;;3.53;2.43;;;36.60;56.70;;;;;;4927252;28;20215;-79
2023/09/12 09:43:38;;;;;;;3.83;2.60;;;36.20;57.10;;;;;;4928805;29;20188;-78
2023/09/12 09:46:04;;;;;;;4.50;2.40;;;35.80;58.00;;;;;;4923623;29;20192;-79
2023/09/12 09:48:31;;;;;;;3.13;2.43;;;35.60;58.90;;;;;;4933604;29;20189;-78
2023/09/12 09:51:02;;;;;;;3.80;2.47;;;35.50;59.50;;;;;;4924626;29;20184;-79
2023/09/12 09:53:29;;;;;;;7.10;2.73;;;35.30;59.90;;;;;;4930311;29;20631;-79
2023/09/12 09:56:14;;;;;;;3.43;2.10;;;35.10;60.30;;;;;;4951812;29;20699;-79
2023/09/12 09:58:58;;;;;;;3.27;1.73;;;35.20;62.20;;;;;;4935335;29;20640;-79
2023/09/12 10:01:28;;;;;;;3.00;2.70;;;35.60;63.50;;;;;;4937536;28;20611;-79
2023/09/12 10:03:58;;;;;;;3.67;2.80;;;35.90;62.80;;;;;;4950722;29;20594;-79
2023/09/12 10:06:26;;;;;;;4.13;2.00;;;36.00;62.10;;;;;;4940205;29;20677;-78
2023/09/12 10:08:53;;;;;;;3.53;2.57;;;36.20;62.30;;;;;;4932021;29;21166;-78
2023/09/12 10:11:22;;;;;;;5.83;2.50;;;36.60;62.60;;;;;;4941268;29;20585;-78
2023/09/12 10:13:55;;;;;;;4.00;2.00;;;37.00;63.40;;;;;;4908270;29;20639;-77
2023/09/12 10:16:31;;;;;;;4.43;2.50;;;37.30;60.90;;;;;;4944782;29;20632;-77
2023/09/12 10:19:10;;;;;;;2.73;2.00;;;37.40;60.10;;;;;;4928877;29;20626;-77
2023/09/12 10:21:35;;;;;;;3.17;1.50;;;37.40;59.40;;;;;;4919839;29;20632;-78
2023/09/12 10:24:03;;;;;;;3.03;2.13;;;37.50;59.30;;;;;;4933144;29;20588;-77
2023/09/12 10:26:31;;;;;;;3.03;1.40;;;37.60;59.30;;;;;;4946854;29;20181;-77
2023/09/12 10:28:59;;;;;;;2.67;2.00;;;37.90;59.50;;;;;;4932981;29;20695;-77
2023/09/12 10:31:26;;;;;;;2.87;2.03;;;38.00;59.10;;;;;;4918564;29;20679;-77
2023/09/12 10:33:53;;;;;;;3.57;2.00;;;38.20;58.50;;;;;;4944561;29;20602;-77
2023/09/12 10:36:20;;;;;;;2.53;1.60;;;38.20;58.20;;;;;;4931667;29;20639;-77
2023/09/12 10:38:48;;;;;;;3.30;1.97;;;38.20;57.40;;;;;;4942598;28;21202;-78
2023/09/12 10:41:15;;;;;;;2.90;1.80;;;38.00;56.60;;;;;;4952443;29;20722;-77
2023/09/12 10:43:43;;;;;;;1.90;1.20;;;37.70;56.40;;;;;;4953603;29;20591;-78
2023/09/12 10:46:09;;;;;;;2.60;2.20;;;37.40;56.50;;;;;;4955561;29;20588;-77
2023/09/12 10:48:40;;;;;;;3.67;2.20;;;37.20;56.80;;;;;;4948679;29;20648;-77
2023/09/12 10:51:07;;;;;;;2.87;1.60;;;37.00;56.60;;;;;;4945180;28;20588;-77
2023/09/12 10:53:33;;;;;;;2.60;2.03;;;36.80;56.80;;;;;;4955993;29;20599;-77
2023/09/12 10:56:21;;;;;;;3.23;2.43;;;36.60;56.60;;;;;;4950360;29;20643;-77
2023/09/12 10:59:03;;;;;;;2.57;2.00;;;36.40;57.00;;;;;;4948031;29;20974;-79
2023/09/12 11:01:33;;;;;;;3.93;2.40;;;36.20;57.60;;;;;;4938336;29;20634;-78
2023/09/12 11:04:19;;;;;;;2.93;2.47;;;36.10;57.80;;;;;;4954602;29;20587;-78
2023/09/12 11:06:46;;;;;;;5.83;2.60;;;36.10;58.20;;;;;;4946443;29;20591;-78
2023/09/12 11:09:15;;;;;;;2.63;2.23;;;36.20;58.40;;;;;;4944323;29;20596;-78
2023/09/12 11:11:47;;;;;;;3.60;3.13;;;36.20;58.30;;;;;;4943723;29;20635;-78
2023/09/12 11:14:15;;;;;;;5.03;2.80;;;36.20;58.20;;;;;;4955507;29;20604;-78
2023/09/12 11:16:41;;;;;;;2.83;2.00;;;36.30;58.30;;;;;;4924825;29;20692;-78
2023/09/12 11:19:24;;;;;;;5.10;2.50;;;36.40;58.40;;;;;;4921496;29;20576;-76
2023/09/12 11:21:51;;;;;;;2.30;2.07;;;36.50;58.10;;;;;;4938566;29;20604;-76
2023/09/12 11:24:17;;;;;;;3.03;1.87;;;36.60;58.00;;;;;;4950128;29;20675;-76
2023/09/12 11:26:58;;;;;;;5.33;2.50;;;36.70;57.90;;;;;;4917264;29;20584;-76
2023/09/12 11:29:35;;;;;;;3.40;2.50;;;36.80;57.60;;;;;;4943722;29;20741;-77
2023/09/12 11:32:03;;;;;;;3.53;2.60;;;36.90;57.30;;;;;;4929050;29;21214;-75
2023/09/12 11:34:36;;;;;;;2.00;1.80;;;37.00;57.50;;;;;;4937210;29;21101;-75
2023/09/12 11:37:03;;;;;;;2.97;2.00;;;37.10;57.50;;;;;;4951383;29;20651;-76
2023/09/12 11:39:30;;;;;;;3.40;1.90;;;37.20;57.30;;;;;;4945197;28;20604;-77
2023/09/12 11:42:01;;;;;;;2.87;1.80;;;37.10;56.70;;;;;;4943648;28;20742;-76
2023/09/12 11:44:28;;;;;;;2.10;1.80;;;37.10;56.50;;;;;;4945331;29;21165;-76
2023/09/12 11:46:54;;;;;;;2.73;1.97;;;37.00;56.50;;;;;;4946220;29;20629;-76
2023/09/12 11:49:20;;;;;;;3.83;2.70;;;36.90;56.60;;;;;;4946294;29;20592;-76
2023/09/12 11:51:51;;;;;;;3.77;2.50;;;36.90;56.30;;;;;;4953734;29;20612;-75
2023/09/12 11:54:19;;;;;;;2.30;1.70;;;36.80;56.40;;;;;;4964814;29;20588;-76
2023/09/12 11:56:48;;;;;;;3.77;1.97;;;36.60;56.40;;;;;;4940528;29;20649;-75
2023/09/12 11:59:13;;;;;;;2.30;1.83;;;36.50;56.50;;;;;;4944512;29;20770;-75
2023/09/12 12:01:39;;;;;;;3.50;2.00;;;36.30;56.40;;;;;;4937702;29;20869;-75
2023/09/12 12:04:06;;;;;;;2.83;2.10;;;36.20;56.70;;;;;;4957761;29;20611;-77
2023/09/12 12:06:35;;;;;;;5.10;1.80;;;36.00;56.70;;;;;;4942993;29;20262;-77
2023/09/12 12:09:01;;;;;;;2.93;2.63;;;35.90;56.90;;;;;;4959255;29;20591;-77
2023/09/12 12:11:34;;;;;;;2.57;1.80;;;35.80;57.10;;;;;;4958220;29;21209;-76
2023/09/12 12:14:14;;;;;;;2.80;1.93;;;35.70;57.30;;;;;;4932194;29;20630;-76
2023/09/12 12:16:42;;;;;;;2.77;1.80;;;35.60;57.50;;;;;;4935868;29;21302;-76
2023/09/12 12:19:07;;;;;;;2.50;1.97;;;35.70;57.70;;;;;;4945166;29;20614;-76
2023/09/12 12:21:57;;;;;;;2.93;2.07;;;35.60;57.60;;;;;;4959352;29;21262;-76
2023/09/12 12:24:36;;;;;;;3.10;2.17;;;35.40;57.70;;;;;;4941289;29;20616;-76
2023/09/12 12:27:03;;;;;;;3.20;2.83;;;35.40;57.70;;;;;;4958170;29;20972;-76
2023/09/12 12:29:30;;;;;;;4.50;1.70;;;35.40;57.70;;;;;;4975936;28;20580;-76
2023/09/12 12:32:01;;;;;;;2.30;1.97;;;35.30;57.80;;;;;;4962210;28;20648;-77
2023/09/12 12:34:27;;;;;;;3.10;2.20;;;35.10;57.70;;;;;;4937750;29;21144;-78
2023/09/12 12:36:56;;;;;;;3.30;2.40;;;35.00;57.50;;;;;;4919432;29;20644;-78
2023/09/12 12:39:22;;;;;;;2.80;2.40;;;34.80;57.60;;;;;;4936809;29;20596;-78
2023/09/12 12:41:51;;;;;;;2.70;2.50;;;34.70;58.00;;;;;;4925936;29;20680;-79
2023/09/12 12:44:17;;;;;;;4.87;3.43;;;34.50;57.80;;;;;;4942524;29;20587;-79
2023/09/12 12:46:53;;;;;;;4.03;2.43;;;34.30;57.70;;;;;;4940976;29;20599;-79
2023/09/12 12:49:19;;;;;;;2.97;2.40;;;34.00;58.00;;;;;;4943866;29;20606;-79